Latest Weather Observations for Latrobe Valley

IDV60801

Issued at 3:42 pm EDT Saturday 22 February 2020 (issued every 10 minutes, with the page automatically refreshed every 10 minutes)

About weather observations | Map of weather stations | Latest weather observations for VIC | Other Formats
Station Details ID: 085280 Name: LATROBE VALLEY AIRPORT Lat: -38.21 Lon: 146.47 Height: 55.7 m
Data from the previous 72 hours. | See also: Recent months at Latrobe Valley
Date/Time
EDT
Temp
°C
App
Temp
°C
Dew
Point
°C
Rel
Hum
%
Delta-T
°C
Wind Press
QNH
hPa
Press
MSL
hPa
Rain since
9am
mm
Dir  Spd
km/h
Gust
km/h
Spd
kts
Gust
kts
22/03:30pm 23.2 21.7 14.2 57 5.3 NE 15 20 8 11 1021.7 1021.5 0.0
22/03:00pm 22.8 21.5 13.6 56 5.3 NE 13 19 7 10 1022.0 1021.8 0.0
22/02:30pm 22.3 21.3 13.4 57 5.1 NE 11 19 6 10 1022.1 1021.9 0.0
22/02:00pm 21.7 19.4 13.1 58 4.9 NE 17 22 9 12 1022.2 1022.0 0.0
22/01:30pm 21.1 19.0 12.3 57 5.0 NE 15 24 8 13 1022.5 1022.3 0.0
22/01:00pm 20.4 18.3 11.3 56 5.0 ENE 13 20 7 11 1023.0 1022.8 0.0
22/12:30pm 20.1 18.0 12.3 61 4.4 ENE 15 24 8 13 1023.5 1023.4 0.0
22/12:00pm 19.6 16.9 11.6 60 4.4 NE 17 24 9 13 1023.7 1023.6 0.0
22/11:30am 19.2 16.2 12.0 63 4.0 NE 19 28 10 15 1023.8 1023.7 0.0
22/11:00am 18.5 15.1 11.3 63 3.9 NE 20 30 11 16 1023.8 1023.7 0.0
22/10:30am 17.6 14.3 10.9 65 3.6 NE 19 26 10 14 1023.8 1023.7 0.0
22/10:00am 16.9 13.5 10.5 66 3.4 ENE 19 26 10 14 1024.0 1023.9 0.0
22/09:30am 16.1 14.1 10.2 68 3.1 ENE 11 19 6 10 1023.9 1023.8 0.0
22/09:00am 14.9 12.9 10.3 74 2.4 ENE 11 15 6 8 1023.8 1023.7 2.2
22/08:30am 13.3 11.9 9.5 78 1.9 NE 7 11 4 6 1023.6 1023.5 2.2
22/08:00am 11.9 11.7 9.1 83 1.4 CALM 0 0 0 0 1023.3 1023.2 2.2
22/07:30am 9.7 8.1 8.1 90 0.8 N 6 7 3 4 1023.2 1023.1 2.2
22/07:00am 10.6 9.7 7.8 83 1.3 ESE 2 6 1 3 1022.8 1022.6 2.2
22/06:30am 10.8 9.9 7.9 82 1.4 ESE 2 7 1 4 1022.5 1022.3 2.2
22/06:00am 11.3 9.6 8.2 81 1.5 SE 7 13 4 7 1022.3 1022.1 2.2
22/05:30am 11.5 9.8 8.5 82 1.5 SE 7 11 4 6 1022.2 1022.0 2.2
22/05:00am 11.7 10.2 8.6 81 1.5 ESE 6 9 3 5 1022.3 1022.1 2.2
22/04:30am 12.5 11.1 9.0 79 1.8 E 6 9 3 5 1022.3 1022.1 2.2
22/04:00am 12.8 11.3 9.3 79 1.8 NE 7 11 4 6 1022.5 1022.3 2.2
22/03:30am 13.4 11.9 9.3 76 2.1 ESE 7 9 4 5 1022.8 1022.6 2.2
22/03:00am 13.5 12.1 9.6 77 2.0 E 7 11 4 6 1023.0 1022.8 2.2
22/02:30am 13.4 12.1 9.3 76 2.1 E 6 9 3 5 1023.2 1023.1 2.2
22/02:00am 13.2 12.0 9.6 79 1.8 SE 6 9 3 5 1023.4 1023.3 2.2
22/01:30am 13.0 11.8 9.6 80 1.7 SE 6 7 3 4 1023.6 1023.5 2.2
22/01:00am 13.1 12.2 9.4 78 1.9 NE 4 7 2 4 1023.8 1023.7 2.2
22/12:30am 13.0 13.1 10.0 82 1.5 CALM 0 6 0 3 1023.7 1023.6 2.2
22/12:00am 13.5 12.6 10.7 83 1.5 NNW 6 7 3 4 1023.6 1023.5 2.2
 
Date/Time
EDT
Temp
°C
App
Temp
°C
Dew
Point
°C
Rel
Hum
%
Delta-T
°C
Wind Press
QNH
hPa
Press
MSL
hPa
Rain since
9am
mm
Dir  Spd
km/h
Gust
km/h
Spd
kts
Gust
kts
21/11:30pm 13.6 13.5 9.3 75 2.2 CALM 0 0 0 0 1023.5 1023.4 2.2
21/11:00pm 14.1 14.2 10.1 77 2.1 CALM 0 0 0 0 1023.4 1023.3 2.2
21/10:30pm 14.1 13.9 9.1 72 2.5 CALM 0 0 0 0 1023.2 1023.1 2.2
21/10:00pm 14.5 13.1 8.9 69 2.8 SSW 6 7 3 4 1022.9 1022.7 2.2
21/09:30pm 14.7 12.8 7.7 63 3.5 S 7 11 4 6 1022.5 1022.3 2.2
21/09:00pm 14.7 13.0 8.2 65 3.3 SSW 7 9 4 5 1022.3 1022.1 2.2
21/08:30pm 15.0 12.5 8.0 63 3.5 S 11 17 6 9 1021.7 1021.5 2.2
21/08:00pm 15.8 12.9 8.1 60 3.9 SSW 13 19 7 10 1021.4 1021.2 2.2
21/07:30pm 16.9 13.6 8.1 56 4.5 SSW 15 20 8 11 1020.8 1020.6 2.2
21/07:00pm 17.6 14.0 8.5 55 4.7 SSW 17 24 9 13 1020.4 1020.2 2.2
21/06:30pm 18.7 15.3 9.2 54 5.0 SW 17 24 9 13 1020.2 1020.0 2.2
21/06:00pm 19.0 14.9 8.6 51 5.4 SW 20 24 11 13 1019.9 1019.7 2.2
21/05:30pm 19.2 15.2 9.1 52 5.3 SW 20 30 11 16 1019.7 1019.5 2.2
21/05:00pm 19.7 15.8 9.3 51 5.5 SW 20 32 11 17 1019.8 1019.6 2.2
21/04:30pm 19.8 15.5 9.4 51 5.5 SW 22 32 12 17 1019.7 1019.5 2.2
21/04:00pm 19.8 15.8 9.1 50 5.6 SW 20 30 11 16 1019.7 1019.5 2.2
21/03:30pm 20.1 15.7 8.8 48 5.9 SW 22 30 12 16 1019.8 1019.6 2.2
21/03:00pm 20.7 17.2 10.8 53 5.4 SW 20 32 11 17 1020.0 1019.8 2.2
21/02:30pm 20.4 16.9 10.8 54 5.3 WSW 20 32 11 17 1020.1 1019.9 2.2
21/02:00pm 19.7 15.9 9.9 53 5.2 WSW 20 26 11 14 1020.1 1019.9 2.2
21/01:30pm 19.2 15.2 9.1 52 5.3 SW 20 30 11 16 1020.0 1019.8 2.0
21/01:00pm 18.1 14.5 10.0 59 4.3 SW 19 26 10 14 1020.2 1020.0 2.0
21/12:30pm 17.7 14.6 11.7 68 3.3 SW 19 26 10 14 1020.3 1020.1 2.0
21/12:00pm 16.5 13.3 11.4 72 2.8 SW 19 24 10 13 1020.4 1020.2 2.0
21/11:30am 15.4 13.1 11.6 78 2.1 SW 15 20 8 11 1020.5 1020.3 2.0
21/11:19am 15.0 13.4 12.7 86 1.3 SW 13 22 7 12 1020.5 1020.3 2.0
21/11:00am 14.4 13.0 13.3 93 0.6 WSW 13 19 7 10 1020.4 1020.2 2.0
21/10:46am 14.1 13.0 13.1 94 0.6 W 11 15 6 8 1020.3 1020.1 1.8
21/10:30am 14.0 12.4 12.9 93 0.6 WSW 13 19 7 10 1020.3 1020.1 1.4
21/10:14am 14.5 12.4 12.5 88 1.1 W 15 19 8 10 1020.0 1019.8 0.0
21/10:00am 15.4 12.8 12.0 80 1.8 WNW 17 22 9 12 1019.8 1019.6 0.0
21/09:30am 14.8 11.8 11.8 82 1.6 WNW 19 24 10 13 1019.6 1019.4 0.0
21/09:00am 15.0 13.8 12.7 86 1.3 WNW 11 15 6 8 1019.4 1019.2 0.0
21/08:30am 13.7 11.3 11.4 86 1.2 WNW 15 20 8 11 1019.0 1018.8 0.0
21/08:00am 13.2 11.3 11.8 91 0.7 WNW 13 17 7 9 1018.6 1018.4 0.0
21/07:30am 12.6 11.3 11.2 91 0.7 WNW 9 15 5 8 1018.4 1018.2 0.0
21/07:00am 12.4 12.0 11.1 92 0.7 SW 4 7 2 4 1017.9 1017.7 0.0
21/06:30am 12.3 11.4 11.2 93 0.6 WSW 7 9 4 5 1017.6 1017.4 0.0
21/06:00am 12.1 11.1 11.0 93 0.6 W 7 9 4 5 1017.3 1017.1 0.0
21/05:30am 11.6 10.6 10.3 92 0.7 WSW 6 7 3 4 1017.2 1017.0 0.0
21/05:00am 11.6 9.9 10.0 90 0.8 W 9 11 5 6 1016.9 1016.7 0.0
21/04:30am 12.9 10.6 10.3 84 1.3 W 13 17 7 9 1016.9 1016.7 0.0
21/04:00am 12.8 10.1 10.3 85 1.3 WNW 15 20 8 11 1016.9 1016.7 0.0
21/03:30am 13.2 10.1 10.2 82 1.6 W 17 22 9 12 1016.9 1016.7 0.0
21/03:00am 13.0 10.4 10.7 86 1.2 W 15 17 8 9 1016.9 1016.7 0.0
21/02:30am 12.6 10.3 10.3 86 1.2 W 13 17 7 9 1016.9 1016.7 0.0
21/02:13am 12.7 9.8 10.9 89 0.9 WNW 17 19 9 10 1017.0 1016.8 0.0
21/02:00am 12.8 8.9 10.9 88 1.0 WNW 22 28 12 15 1017.0 1016.8 0.0
21/01:56am 13.1 9.2 10.8 86 1.2 W 22 28 12 15 1017.1 1016.9 0.0
21/01:30am 13.9 10.8 10.3 79 1.9 W 17 20 9 11 1017.2 1017.0 0.0
21/01:00am 14.0 10.8 10.0 77 2.1 W 17 24 9 13 1017.4 1017.2 0.0
21/12:30am 13.9 11.6 10.3 79 1.9 WSW 13 19 7 10 1017.5 1017.3 0.0
21/12:00am 14.0 10.8 10.0 77 2.1 WSW 17 22 9 12 1017.4 1017.2 0.0
 
Date/Time
EDT
Temp
°C
App
Temp
°C
Dew
Point
°C
Rel
Hum
%
Delta-T
°C
Wind Press
QNH
hPa
Press
MSL
hPa
Rain since
9am
mm
Dir  Spd
km/h
Gust
km/h
Spd
kts
Gust
kts
20/11:30pm 13.7 10.2 10.3 80 1.8 W 19 26 10 14 1017.2 1017.0 0.0
20/11:00pm 13.8 9.5 10.6 81 1.7 WSW 24 32 13 17 1017.3 1017.1 0.0
20/10:30pm 14.4 10.1 9.2 71 2.7 W 22 28 12 15 1017.1 1016.9 0.0
20/10:00pm 14.8 10.8 9.0 68 3.0 WSW 20 26 11 14 1016.8 1016.6 0.0
20/09:30pm 14.7 10.5 8.4 66 3.2 WSW 20 26 11 14 1016.4 1016.2 0.0
20/09:00pm 14.8 8.8 8.7 67 3.1 SW 30 35 16 19 1016.0 1015.8 0.0
20/08:30pm 14.9 10.2 9.1 68 3.0 SW 24 33 13 18 1015.6 1015.4 0.0
20/08:00pm 15.2 10.6 9.8 70 2.8 WSW 24 28 13 15 1015.3 1015.1 0.0
20/07:30pm 15.5 10.5 9.6 68 3.1 SW 26 32 14 17 1015.0 1014.8 0.0
20/07:00pm 15.7 10.8 9.8 68 3.1 SW 26 33 14 18 1014.6 1014.4 0.0
20/06:30pm 16.4 10.8 10.3 67 3.2 SW 30 35 16 19 1014.5 1014.3 0.0
20/06:00pm 17.1 12.5 9.8 62 3.8 WSW 24 30 13 16 1014.5 1014.3 0.0
20/05:30pm 17.0 11.6 9.4 61 4.0 WSW 28 33 15 18 1014.4 1014.2 0.0
20/05:00pm 17.4 12.3 9.1 58 4.3 WSW 26 35 14 19 1014.3 1014.1 0.0
20/04:30pm 17.8 12.6 8.9 56 4.6 WSW 26 32 14 17 1014.2 1014.0 0.0
20/04:00pm 18.1 13.6 10.0 59 4.3 W 24 33 13 18 1014.5 1014.3 0.0
20/03:30pm 18.5 14.5 10.6 60 4.3 W 22 32 12 17 1014.7 1014.5 0.0
20/03:00pm 17.5 12.8 9.4 59 4.2 WSW 24 33 13 18 1015.0 1014.8 0.0
20/02:30pm 17.4 14.0 11.2 67 3.4 WSW 20 28 11 15 1015.2 1015.0 0.0
20/02:00pm 16.6 13.0 10.7 68 3.2 SW 20 28 11 15 1015.4 1015.2 0.0
20/01:30pm 16.4 12.2 11.1 71 2.9 SW 24 30 13 16 1015.4 1015.2 0.0
20/01:00pm 16.1 12.1 10.6 70 2.9 W 22 28 12 15 1015.6 1015.4 0.0
20/12:30pm 16.1 12.1 11.7 75 2.4 WNW 24 32 13 17 1015.5 1015.3 0.0
20/12:00pm 15.3 12.2 11.7 79 1.9 W 19 24 10 13 1015.5 1015.3 0.0
20/11:30am 15.0 11.5 12.1 83 1.6 W 22 32 12 17 1015.3 1015.1 0.0
20/11:00am 14.9 10.9 11.9 82 1.6 WNW 24 32 13 17 1015.1 1014.9 0.0
20/10:54am 15.0 11.2 12.3 84 1.5 WNW 24 32 13 17 1015.2 1015.0 0.0
20/10:41am 14.5 10.0 11.5 82 1.6 WNW 26 33 14 18 1015.1 1014.9 0.0
20/10:30am 14.7 10.2 11.5 81 1.7 WNW 26 33 14 18 1015.0 1014.8 0.0
20/10:00am 14.6 10.6 11.7 83 1.6 W 24 32 13 17 1014.7 1014.5 0.0
20/09:30am 14.5 10.6 12.0 85 1.4 W 24 32 13 17 1014.4 1014.2 0.0
20/09:00am 13.9 9.8 11.6 86 1.2 W 24 33 13 18 1014.1 1013.9 0.2
20/08:30am 14.0 10.4 11.7 86 1.2 W 22 30 12 16 1013.6 1013.4 0.2
20/08:00am 13.6 9.5 11.3 86 1.2 W 24 32 13 17 1013.3 1013.1 0.2
20/07:30am 13.5 9.4 11.4 87 1.1 W 24 32 13 17 1013.0 1012.9 0.2
20/07:00am 13.3 9.9 11.4 88 1.0 W 20 28 11 15 1012.7 1012.6 0.2
20/06:30am 13.0 9.5 10.9 87 1.1 W 20 28 11 15 1012.3 1012.2 0.2
20/06:00am 12.7 8.6 10.1 84 1.3 W 22 30 12 16 1012.0 1011.9 0.2
20/05:30am 12.5 8.7 9.7 83 1.4 W 20 26 11 14 1012.0 1011.9 0.2
20/05:00am 12.4 8.8 10.0 85 1.2 WNW 19 24 10 13 1012.0 1011.9 0.2
20/04:30am 12.6 8.7 9.4 81 1.6 WNW 20 28 11 15 1011.9 1011.8 0.2
20/04:00am 12.4 8.8 9.8 84 1.3 W 19 24 10 13 1011.9 1011.8 0.2
20/03:30am 12.5 8.9 9.9 84 1.3 W 19 22 10 12 1012.2 1012.1 0.2
20/03:00am 12.8 8.6 9.6 81 1.6 W 22 28 12 15 1012.0 1011.9 0.2
20/02:30am 12.9 9.1 9.7 81 1.6 W 20 24 11 13 1012.0 1011.9 0.2
20/02:00am 13.4 9.2 9.8 79 1.9 W 22 28 12 15 1012.2 1012.1 0.2
20/01:30am 13.3 9.8 10.3 82 1.6 W 19 24 10 13 1012.5 1012.4 0.2
20/01:00am 13.6 10.7 11.0 84 1.4 W 17 22 9 12 1012.5 1012.4 0.2
20/12:30am 13.6 10.2 11.1 85 1.3 W 20 24 11 13 1012.4 1012.3 0.2
20/12:00am 13.9 10.5 11.4 85 1.3 W 20 28 11 15 1012.6 1012.5 0.2
 
Date/Time
EDT
Temp
°C
App
Temp
°C
Dew
Point
°C
Rel
Hum
%
Delta-T
°C
Wind Press
QNH
hPa
Press
MSL
hPa
Rain since
9am
mm
Dir  Spd
km/h
Gust
km/h
Spd
kts
Gust
kts
19/11:31pm 13.8 10.7 11.5 86 1.2 W 19 28 10 15 1012.6 1012.5 0.2
19/11:30pm 13.8 10.7 11.7 87 1.1 W 19 28 10 15 1012.6 1012.5 0.2
19/11:21pm 13.8 10.1 11.5 86 1.2 W 22 28 12 15 1012.5 1012.4 0.2
19/11:00pm 14.3 10.4 10.9 80 1.8 W 22 28 12 15 1012.4 1012.3 0.2
19/10:30pm 14.4 10.9 11.0 80 1.8 W 20 28 11 15 1012.5 1012.4 0.2
19/10:00pm 14.6 11.0 10.4 76 2.2 W 20 26 11 14 1012.4 1012.3 0.2
19/09:30pm 14.9 11.9 10.7 76 2.2 W 17 20 9 11 1012.2 1012.1 0.2
19/09:00pm 15.0 11.6 10.4 74 2.4 W 19 26 10 14 1012.0 1011.9 0.2
19/08:30pm 15.2 11.4 9.8 70 2.8 W 20 28 11 15 1011.6 1011.5 0.2
19/08:00pm 15.3 10.6 9.4 68 3.1 W 24 35 13 19 1011.3 1011.2 0.2
19/07:30pm 15.8 10.3 9.2 65 3.4 W 28 39 15 21 1010.8 1010.7 0.2
19/07:00pm 15.9 11.3 9.6 66 3.3 WSW 24 35 13 19 1010.4 1010.3 0.2
19/06:30pm 16.1 10.5 10.0 67 3.2 WSW 30 41 16 22 1010.1 1010.0 0.2
19/06:00pm 16.4 10.3 9.8 65 3.5 WSW 32 43 17 23 1009.8 1009.7 0.2
19/05:40pm 17.2 11.0 9.4 60 4.1 WSW 32 50 17 27 1009.3 1009.2 0.2
19/05:30pm 17.3 11.6 11.1 67 3.4 WSW 32 41 17 22 1009.4 1009.3 0.2
19/05:00pm 16.0 9.7 11.2 73 2.6 WSW 35 48 19 26 1009.1 1009.0 0.2
19/04:30pm 16.9 10.7 11.4 70 3.0 WSW 35 46 19 25 1009.0 1008.9 0.2
19/04:00pm 17.3 11.2 11.6 69 3.1 WSW 35 50 19 27 1008.7 1008.6 0.2

Other formats

Comma delimited format used in spreadsheet applications
http://www.bom.gov.au/fwo/IDV60801/IDV60801.94891.axf

JavaScript Object Notation format (JSON) in row-major order
http://www.bom.gov.au/fwo/IDV60801/IDV60801.94891.json

Data quality

Most of these data are generated automatically and are frequently updated. Quality checks on data are not normally performed. It is possible for incorrect values to appear. Refer to information at About Latest Weather Observations and please check the disclaimer before using these data.